sensor_id;sensor_type;location;lat;lon;timestamp;pressure;altitude;pressure_sealevel;temperature;humidity
40788;BME280;26497;52.494;7.546;2023-03-03T00:01:00;101849.44;;;7.62;61.28
40788;BME280;26497;52.494;7.546;2023-03-03T00:03:28;101848.66;;;7.65;61.12
40788;BME280;26497;52.494;7.546;2023-03-03T00:05:56;101853.81;;;7.62;61.32
40788;BME280;26497;52.494;7.546;2023-03-03T00:08:23;101853.94;;;7.66;60.69
40788;BME280;26497;52.494;7.546;2023-03-03T00:10:51;101850.28;;;7.61;61.13
40788;BME280;26497;52.494;7.546;2023-03-03T00:13:23;101854.13;;;7.73;61.33
40788;BME280;26497;52.494;7.546;2023-03-03T00:15:50;101858.81;;;7.83;60.84
40788;BME280;26497;52.494;7.546;2023-03-03T00:18:32;101857.03;;;7.82;60.55
40788;BME280;26497;52.494;7.546;2023-03-03T00:21:02;101864.03;;;7.81;60.71
40788;BME280;26497;52.494;7.546;2023-03-03T00:23:36;101856.38;;;7.89;60.80
40788;BME280;26497;52.494;7.546;2023-03-03T00:26:17;101857.22;;;7.88;60.76
40788;BME280;26497;52.494;7.546;2023-03-03T00:28:48;101859.00;;;7.89;60.66
40788;BME280;26497;52.494;7.546;2023-03-03T00:31:18;101868.75;;;7.93;60.61
40788;BME280;26497;52.494;7.546;2023-03-03T00:33:49;101860.06;;;7.96;60.72
40788;BME280;26497;52.494;7.546;2023-03-03T00:36:36;101858.16;;;7.90;60.61
40788;BME280;26497;52.494;7.546;2023-03-03T00:39:25;101856.75;;;8.02;60.40
40788;BME280;26497;52.494;7.546;2023-03-03T00:41:52;101857.63;;;8.02;60.39
40788;BME280;26497;52.494;7.546;2023-03-03T00:44:40;101858.25;;;7.93;60.44
40788;BME280;26497;52.494;7.546;2023-03-03T00:47:26;101853.09;;;7.96;59.82
40788;BME280;26497;52.494;7.546;2023-03-03T00:50:15;101864.22;;;7.88;60.02
40788;BME280;26497;52.494;7.546;2023-03-03T00:52:49;101857.28;;;7.90;60.33
40788;BME280;26497;52.494;7.546;2023-03-03T00:55:19;101857.22;;;7.88;60.10
40788;BME280;26497;52.494;7.546;2023-03-03T00:57:46;101846.78;;;7.90;60.08
40788;BME280;26497;52.494;7.546;2023-03-03T01:00:14;101854.69;;;7.91;60.14
40788;BME280;26497;52.494;7.546;2023-03-03T01:02:41;101845.97;;;7.92;60.10
40788;BME280;26497;52.494;7.546;2023-03-03T01:05:15;101850.38;;;7.93;60.12
40788;BME280;26497;52.494;7.546;2023-03-03T01:07:42;101845.97;;;7.92;59.75
40788;BME280;26497;52.494;7.546;2023-03-03T01:10:10;101843.44;;;7.95;59.90
40788;BME280;26497;52.494;7.546;2023-03-03T01:12:38;101848.69;;;7.95;59.86
40788;BME280;26497;52.494;7.546;2023-03-03T01:15:08;101845.38;;;8.03;59.84
40788;BME280;26497;52.494;7.546;2023-03-03T01:17:35;101845.38;;;8.03;59.58
40788;BME280;26497;52.494;7.546;2023-03-03T01:20:06;101844.66;;;8.08;59.62
40788;BME280;26497;52.494;7.546;2023-03-03T01:22:35;101852.34;;;8.01;59.11
40788;BME280;26497;52.494;7.546;2023-03-03T01:25:02;101848.81;;;8.00;58.90
40788;BME280;26497;52.494;7.546;2023-03-03T01:27:30;101852.63;;;7.81;58.74
40788;BME280;26497;52.494;7.546;2023-03-03T01:29:57;101850.09;;;7.55;59.18
40788;BME280;26497;52.494;7.546;2023-03-03T01:32:25;101852.44;;;7.46;59.44
40788;BME280;26497;52.494;7.546;2023-03-03T01:34:53;101846.25;;;7.44;59.63
40788;BME280;26497;52.494;7.546;2023-03-03T01:37:20;101854.00;;;7.41;59.77
40788;BME280;26497;52.494;7.546;2023-03-03T01:39:50;101850.72;;;7.19;60.19
40788;BME280;26497;52.494;7.546;2023-03-03T01:42:18;101848.31;;;7.25;60.30
40788;BME280;26497;52.494;7.546;2023-03-03T01:44:46;101856.22;;;6.99;60.70
40788;BME280;26497;52.494;7.546;2023-03-03T01:47:15;101857.47;;;6.85;61.61
40788;BME280;26497;52.494;7.546;2023-03-03T01:49:47;101849.19;;;6.98;60.99
40788;BME280;26497;52.494;7.546;2023-03-03T01:52:23;101840.69;;;7.07;60.51
40788;BME280;26497;52.494;7.546;2023-03-03T01:54:56;101847.06;;;7.14;60.32
40788;BME280;26497;52.494;7.546;2023-03-03T01:57:30;101853.34;;;7.19;60.21
40788;BME280;26497;52.494;7.546;2023-03-03T01:59:59;101852.00;;;7.32;59.81
40788;BME280;26497;52.494;7.546;2023-03-03T02:02:28;101839.84;;;7.35;59.58
40788;BME280;26497;52.494;7.546;2023-03-03T02:04:55;101846.13;;;7.41;59.40
40788;BME280;26497;52.494;7.546;2023-03-03T02:07:25;101850.00;;;7.23;60.15
40788;BME280;26497;52.494;7.546;2023-03-03T02:09:58;101844.28;;;7.09;60.79
40788;BME280;26497;52.494;7.546;2023-03-03T02:12:34;101852.31;;;6.88;61.46
40788;BME280;26497;52.494;7.546;2023-03-03T02:15:16;101846.91;;;6.83;61.64
40788;BME280;26497;52.494;7.546;2023-03-03T02:17:43;101845.19;;;7.10;61.04
40788;BME280;26497;52.494;7.546;2023-03-03T02:20:17;101845.50;;;7.20;60.92
40788;BME280;26497;52.494;7.546;2023-03-03T02:22:50;101852.84;;;7.31;60.79
40788;BME280;26497;52.494;7.546;2023-03-03T02:25:28;101843.72;;;7.47;60.22
40788;BME280;26497;52.494;7.546;2023-03-03T02:27:59;101841.28;;;7.53;59.98
40788;BME280;26497;52.494;7.546;2023-03-03T02:30:26;101849.16;;;7.53;59.68
40788;BME280;26497;52.494;7.546;2023-03-03T02:32:53;101840.63;;;7.60;59.26
40788;BME280;26497;52.494;7.546;2023-03-03T02:35:30;101837.81;;;7.54;59.81
40788;BME280;26497;52.494;7.546;2023-03-03T02:38:08;101844.09;;;7.59;59.67
40788;BME280;26497;52.494;7.546;2023-03-03T02:40:43;101835.38;;;7.60;59.58
40788;BME280;26497;52.494;7.546;2023-03-03T02:43:15;101840.72;;;7.63;59.61
40788;BME280;26497;52.494;7.546;2023-03-03T02:45:44;101836.31;;;7.62;59.31
40788;BME280;26497;52.494;7.546;2023-03-03T02:48:11;101845.13;;;7.64;59.54
40788;BME280;26497;52.494;7.546;2023-03-03T02:50:38;101836.41;;;7.65;59.42
40788;BME280;26497;52.494;7.546;2023-03-03T02:53:05;101835.75;;;7.73;59.27
40788;BME280;26497;52.494;7.546;2023-03-03T02:55:32;101824.50;;;7.77;59.32
40788;BME280;26497;52.494;7.546;2023-03-03T02:58:00;101822.81;;;7.79;58.54
40788;BME280;26497;52.494;7.546;2023-03-03T03:00:28;101829.84;;;7.80;58.82
40788;BME280;26497;52.494;7.546;2023-03-03T03:02:55;101828.13;;;7.80;59.00
40788;BME280;26497;52.494;7.546;2023-03-03T03:05:22;101831.97;;;7.93;58.47
40788;BME280;26497;52.494;7.546;2023-03-03T03:07:49;101833.47;;;7.84;58.72
40788;BME280;26497;52.494;7.546;2023-03-03T03:10:16;101835.75;;;7.73;58.67
40788;BME280;26497;52.494;7.546;2023-03-03T03:12:43;101841.41;;;7.29;60.53
40788;BME280;26497;52.494;7.546;2023-03-03T03:15:11;101843.84;;;7.22;60.84
40788;BME280;26497;52.494;7.546;2023-03-03T03:17:39;101841.63;;;7.07;61.47
40788;BME280;26497;52.494;7.546;2023-03-03T03:20:08;101841.06;;;7.18;61.01
40788;BME280;26497;52.494;7.546;2023-03-03T03:22:35;101838.28;;;7.13;61.45
40788;BME280;26497;52.494;7.546;2023-03-03T03:25:02;101840.22;;;7.19;61.29
40788;BME280;26497;52.494;7.546;2023-03-03T03:27:29;101841.06;;;7.18;61.69
40788;BME280;26497;52.494;7.546;2023-03-03T03:29:56;101849.28;;;6.75;63.13
40788;BME280;26497;52.494;7.546;2023-03-03T03:32:24;101844.03;;;7.01;62.71
40788;BME280;26497;52.494;7.546;2023-03-03T03:34:52;101851.38;;;7.12;62.48
40788;BME280;26497;52.494;7.546;2023-03-03T03:37:19;101846.34;;;7.19;62.28
40788;BME280;26497;52.494;7.546;2023-03-03T03:39:47;101845.81;;;7.30;62.05
40788;BME280;26497;52.494;7.546;2023-03-03T03:42:14;101846.63;;;7.27;61.74
40788;BME280;26497;52.494;7.546;2023-03-03T03:44:41;101831.94;;;7.34;61.73
40788;BME280;26497;52.494;7.546;2023-03-03T03:47:08;101842.56;;;7.38;61.65
40788;BME280;26497;52.494;7.546;2023-03-03T03:49:35;101840.88;;;7.41;61.86
40788;BME280;26497;52.494;7.546;2023-03-03T03:52:04;101846.63;;;7.56;61.70
40788;BME280;26497;52.494;7.546;2023-03-03T03:54:31;101845.38;;;7.72;60.99
40788;BME280;26497;52.494;7.546;2023-03-03T03:56:58;101843.06;;;7.54;61.09
40788;BME280;26497;52.494;7.546;2023-03-03T03:59:25;101843.63;;;7.44;61.33
40788;BME280;26497;52.494;7.546;2023-03-03T04:01:52;101849.72;;;7.43;61.34
40788;BME280;26497;52.494;7.546;2023-03-03T04:04:19;101849.91;;;7.49;61.29
40788;BME280;26497;52.494;7.546;2023-03-03T04:06:46;101853.06;;;7.66;61.07
40788;BME280;26497;52.494;7.546;2023-03-03T04:09:15;101844.72;;;7.50;61.45
40788;BME280;26497;52.494;7.546;2023-03-03T04:11:42;101842.31;;;7.58;61.09
40788;BME280;26497;52.494;7.546;2023-03-03T04:14:09;101846.50;;;7.51;61.19
40788;BME280;26497;52.494;7.546;2023-03-03T04:16:36;101846.59;;;7.55;61.27
40788;BME280;26497;52.494;7.546;2023-03-03T04:19:03;101845.59;;;7.51;61.07
40788;BME280;26497;52.494;7.546;2023-03-03T04:21:30;101847.19;;;7.46;61.39
40788;BME280;26497;52.494;7.546;2023-03-03T04:23:58;101843.69;;;7.45;61.25
40788;BME280;26497;52.494;7.546;2023-03-03T04:26:26;101843.41;;;7.37;60.99
40788;BME280;26497;52.494;7.546;2023-03-03T04:28:53;101841.59;;;7.35;61.36
40788;BME280;26497;52.494;7.546;2023-03-03T04:31:20;101839.38;;;7.47;61.33
40788;BME280;26497;52.494;7.546;2023-03-03T04:33:48;101841.94;;;7.46;61.02
40788;BME280;26497;52.494;7.546;2023-03-03T04:36:15;101844.06;;;7.58;60.94
40788;BME280;26497;52.494;7.546;2023-03-03T04:38:42;101842.28;;;7.57;60.87
40788;BME280;26497;52.494;7.546;2023-03-03T04:41:09;101847.56;;;7.58;60.93
40788;BME280;26497;52.494;7.546;2023-03-03T04:43:37;101842.03;;;7.49;61.10
40788;BME280;26497;52.494;7.546;2023-03-03T04:46:05;101848.66;;;7.37;61.02
40788;BME280;26497;52.494;7.546;2023-03-03T04:48:32;101837.19;;;7.34;61.20
40788;BME280;26497;52.494;7.546;2023-03-03T04:50:59;101848.88;;;7.16;61.72
40788;BME280;26497;52.494;7.546;2023-03-03T04:53:26;101851.78;;;7.24;61.36
40788;BME280;26497;52.494;7.546;2023-03-03T04:55:53;101851.06;;;7.30;61.53
40788;BME280;26497;52.494;7.546;2023-03-03T04:58:21;101855.38;;;7.28;61.04
40788;BME280;26497;52.494;7.546;2023-03-03T05:00:55;101857.34;;;7.07;61.57
40788;BME280;26497;52.494;7.546;2023-03-03T05:03:23;101860.94;;;7.11;61.82
40788;BME280;26497;52.494;7.546;2023-03-03T05:05:51;101868.09;;;6.89;62.31
40788;BME280;26497;52.494;7.546;2023-03-03T05:08:19;101863.91;;;6.94;62.09
40788;BME280;26497;52.494;7.546;2023-03-03T05:10:46;101879.19;;;7.06;61.38
40788;BME280;26497;52.494;7.546;2023-03-03T05:13:16;101871.34;;;7.08;61.68
40788;BME280;26497;52.494;7.546;2023-03-03T05:15:49;101867.50;;;7.24;61.61
40788;BME280;26497;52.494;7.546;2023-03-03T05:18:18;101871.16;;;7.29;61.29
40788;BME280;26497;52.494;7.546;2023-03-03T05:20:45;101877.28;;;7.28;61.09
40788;BME280;26497;52.494;7.546;2023-03-03T05:23:13;101875.53;;;7.29;60.86
40788;BME280;26497;52.494;7.546;2023-03-03T05:25:40;101872.16;;;7.33;60.92
40788;BME280;26497;52.494;7.546;2023-03-03T05:28:08;101868.88;;;7.40;60.84
40788;BME280;26497;52.494;7.546;2023-03-03T05:30:36;101862.00;;;7.44;60.94
40788;BME280;26497;52.494;7.546;2023-03-03T05:33:04;101870.34;;;7.59;60.01
40788;BME280;26497;52.494;7.546;2023-03-03T05:35:33;101875.81;;;7.38;60.40
40788;BME280;26497;52.494;7.546;2023-03-03T05:38:01;101870.56;;;7.38;60.23
40788;BME280;26497;52.494;7.546;2023-03-03T05:40:28;101862.50;;;7.32;61.00
40788;BME280;26497;52.494;7.546;2023-03-03T05:42:55;101864.06;;;7.25;61.03
40788;BME280;26497;52.494;7.546;2023-03-03T05:45:23;101861.53;;;7.28;60.97
40788;BME280;26497;52.494;7.546;2023-03-03T05:47:50;101862.06;;;7.45;60.42
40788;BME280;26497;52.494;7.546;2023-03-03T05:50:18;101869.84;;;7.44;60.60
40788;BME280;26497;52.494;7.546;2023-03-03T05:52:48;101871.19;;;7.58;60.14
40788;BME280;26497;52.494;7.546;2023-03-03T05:55:16;101859.00;;;7.60;59.68
40788;BME280;26497;52.494;7.546;2023-03-03T05:57:44;101865.38;;;7.68;59.50
40788;BME280;26497;52.494;7.546;2023-03-03T06:00:13;101868.75;;;7.64;59.68
40788;BME280;26497;52.494;7.546;2023-03-03T06:02:41;101858.91;;;7.57;60.00
40788;BME280;26497;52.494;7.546;2023-03-03T06:05:09;101865.19;;;7.62;60.04
40788;BME280;26497;52.494;7.546;2023-03-03T06:07:37;101863.41;;;7.61;59.71
40788;BME280;26497;52.494;7.546;2023-03-03T06:10:07;101860.97;;;7.67;59.66
40788;BME280;26497;52.494;7.546;2023-03-03T06:12:34;101865.84;;;7.55;60.43
40788;BME280;26497;52.494;7.546;2023-03-03T06:15:02;101871.94;;;7.54;60.11
40788;BME280;26497;52.494;7.546;2023-03-03T06:17:29;101872.19;;;7.62;60.47
40788;BME280;26497;52.494;7.546;2023-03-03T06:19:56;101869.78;;;7.70;59.97
40788;BME280;26497;52.494;7.546;2023-03-03T06:22:24;101875.97;;;7.72;60.20
40788;BME280;26497;52.494;7.546;2023-03-03T06:24:51;101866.47;;;7.75;59.96
40788;BME280;26497;52.494;7.546;2023-03-03T06:27:19;101875.28;;;7.77;59.63
40788;BME280;26497;52.494;7.546;2023-03-03T06:29:47;101876.16;;;7.78;59.81
40788;BME280;26497;52.494;7.546;2023-03-03T06:32:14;101878.91;;;7.81;59.82
40788;BME280;26497;52.494;7.546;2023-03-03T06:34:41;101883.28;;;7.80;59.38
40788;BME280;26497;52.494;7.546;2023-03-03T06:37:08;101883.09;;;7.74;59.87
40788;BME280;26497;52.494;7.546;2023-03-03T06:39:35;101886.03;;;7.85;59.50
40788;BME280;26497;52.494;7.546;2023-03-03T06:42:03;101898.09;;;7.78;59.57
40788;BME280;26497;52.494;7.546;2023-03-03T06:44:31;101892.59;;;7.71;59.65
40788;BME280;26497;52.494;7.546;2023-03-03T06:46:59;101896.22;;;7.74;59.47
40788;BME280;26497;52.494;7.546;2023-03-03T06:49:26;101897.75;;;7.67;59.11
40788;BME280;26497;52.494;7.546;2023-03-03T06:51:53;101909.31;;;7.45;59.92
40788;BME280;26497;52.494;7.546;2023-03-03T06:54:26;101909.50;;;7.51;59.98
40788;BME280;26497;52.494;7.546;2023-03-03T06:56:58;101904.44;;;7.58;59.93
40788;BME280;26497;52.494;7.546;2023-03-03T06:59:26;101904.88;;;7.72;59.93
40788;BME280;26497;52.494;7.546;2023-03-03T07:01:55;101917.03;;;7.68;60.01
40788;BME280;26497;52.494;7.546;2023-03-03T07:04:27;101910.09;;;7.70;60.25
40788;BME280;26497;52.494;7.546;2023-03-03T07:06:56;101915.56;;;7.78;59.97
40788;BME280;26497;52.494;7.546;2023-03-03T07:09:26;101921.75;;;7.80;60.38
40788;BME280;26497;52.494;7.546;2023-03-03T07:11:59;101920.81;;;7.78;60.50
40788;BME280;26497;52.494;7.546;2023-03-03T07:14:27;101934.63;;;8.00;60.09
40788;BME280;26497;52.494;7.546;2023-03-03T07:16:59;101939.97;;;8.03;60.21
40788;BME280;26497;52.494;7.546;2023-03-03T07:19:32;101940.28;;;8.14;60.19
40788;BME280;26497;52.494;7.546;2023-03-03T07:22:03;101937.06;;;8.22;60.24
40788;BME280;26497;52.494;7.546;2023-03-03T07:24:37;101944.47;;;8.36;59.47
40788;BME280;26497;52.494;7.546;2023-03-03T07:27:11;101939.03;;;8.30;60.14
40788;BME280;26497;52.494;7.546;2023-03-03T07:29:40;101944.63;;;8.42;59.96
40788;BME280;26497;52.494;7.546;2023-03-03T07:32:26;101944.03;;;8.51;59.72
40788;BME280;26497;52.494;7.546;2023-03-03T07:34:55;101935.59;;;8.63;nan
40788;BME280;26497;52.494;7.546;2023-03-03T07:37:33;101940.63;;;8.53;59.62
40788;BME280;26497;52.494;7.546;2023-03-03T07:40:20;101940.66;;;8.55;59.73
40788;BME280;26497;52.494;7.546;2023-03-03T07:42:51;101944.59;;;8.71;59.84
40788;BME280;26497;52.494;7.546;2023-03-03T07:45:26;101942.09;;;8.76;59.50
40788;BME280;26497;52.494;7.546;2023-03-03T07:48:03;101940.41;;;8.78;59.58
40788;BME280;26497;52.494;7.546;2023-03-03T07:50:35;101943.53;;;8.96;59.13
40788;BME280;26497;52.494;7.546;2023-03-03T07:53:02;101945.41;;;9.00;59.36
40788;BME280;26497;52.494;7.546;2023-03-03T07:55:34;101943.88;;;9.09;59.12
40788;BME280;26497;52.494;7.546;2023-03-03T07:58:21;101941.38;;;9.15;58.46
40788;BME280;26497;52.494;7.546;2023-03-03T08:01:37;101945.97;;;9.22;58.18
40788;BME280;26497;52.494;7.546;2023-03-03T08:04:22;101948.47;;;9.18;58.46
40788;BME280;26497;52.494;7.546;2023-03-03T08:06:53;101950.94;;;9.11;57.74
40788;BME280;26497;52.494;7.546;2023-03-03T08:09:45;101946.28;;;9.01;57.94
40788;BME280;26497;52.494;7.546;2023-03-03T08:12:39;101948.97;;;9.03;57.70
40788;BME280;26497;52.494;7.546;2023-03-03T08:15:22;101951.69;;;9.07;58.06
40788;BME280;26497;52.494;7.546;2023-03-03T08:17:51;101952.78;;;9.14;57.97
40788;BME280;26497;52.494;7.546;2023-03-03T08:20:45;101954.81;;;9.26;57.81
40788;BME280;26497;52.494;7.546;2023-03-03T08:23:14;101950.63;;;9.34;57.92
40788;BME280;26497;52.494;7.546;2023-03-03T08:25:42;101957.16;;;9.50;57.60
40788;BME280;26497;52.494;7.546;2023-03-03T08:28:09;101951.88;;;9.49;57.47
40788;BME280;26497;52.494;7.546;2023-03-03T08:30:37;101952.81;;;9.51;57.15
40788;BME280;26497;52.494;7.546;2023-03-03T08:33:04;101950.13;;;9.49;57.18
40788;BME280;26497;52.494;7.546;2023-03-03T08:35:32;101950.41;;;9.60;57.27
40788;BME280;26497;52.494;7.546;2023-03-03T08:38:00;101959.88;;;9.90;56.06
40788;BME280;26497;52.494;7.546;2023-03-03T08:40:28;101953.13;;;10.03;54.97
40788;BME280;26497;52.494;7.546;2023-03-03T08:42:55;101961.63;;;9.89;55.79
40788;BME280;26497;52.494;7.546;2023-03-03T08:45:23;101958.19;;;9.92;55.63
40788;BME280;26497;52.494;7.546;2023-03-03T08:47:51;101960.03;;;9.98;55.57
40788;BME280;26497;52.494;7.546;2023-03-03T08:50:19;101968.75;;;9.95;55.24
40788;BME280;26497;52.494;7.546;2023-03-03T08:52:46;101967.19;;;10.03;55.21
40788;BME280;26497;52.494;7.546;2023-03-03T08:55:15;101960.47;;;10.18;54.57
40788;BME280;26497;52.494;7.546;2023-03-03T08:57:42;101958.97;;;10.28;54.88
40788;BME280;26497;52.494;7.546;2023-03-03T09:00:12;101959.41;;;10.10;55.19
40788;BME280;26497;52.494;7.546;2023-03-03T09:02:40;101962.03;;;10.46;54.40
40788;BME280;26497;52.494;7.546;2023-03-03T09:05:08;101957.25;;;10.73;52.97
40788;BME280;26497;52.494;7.546;2023-03-03T09:07:36;101959.63;;;10.59;53.56
40788;BME280;26497;52.494;7.546;2023-03-03T09:10:05;101960.78;;;10.73;53.79
40788;BME280;26497;52.494;7.546;2023-03-03T09:12:37;101956.13;;;11.06;52.97
40788;BME280;26497;52.494;7.546;2023-03-03T09:15:23;101957.81;;;11.02;50.76
40788;BME280;26497;52.494;7.546;2023-03-03T09:17:51;101958.06;;;11.16;50.78
40788;BME280;26497;52.494;7.546;2023-03-03T09:20:32;101955.72;;;11.35;50.45
40788;BME280;26497;52.494;7.546;2023-03-03T09:23:34;101966.84;;;11.69;50.21
40788;BME280;26497;52.494;7.546;2023-03-03T09:26:25;101962.47;;;11.71;48.21
40788;BME280;26497;52.494;7.546;2023-03-03T09:29:06;101970.16;;;12.11;49.13
40788;BME280;26497;52.494;7.546;2023-03-03T09:31:39;101972.50;;;12.54;46.92
40788;BME280;26497;52.494;7.546;2023-03-03T09:34:20;101966.69;;;12.89;46.81
40788;BME280;26497;52.494;7.546;2023-03-03T09:36:49;101969.34;;;12.89;44.89
40788;BME280;26497;52.494;7.546;2023-03-03T09:39:19;101975.63;;;13.01;45.51
40788;BME280;26497;52.494;7.546;2023-03-03T09:42:23;101971.34;;;13.12;44.75
40788;BME280;26497;52.494;7.546;2023-03-03T09:45:22;101969.66;;;13.19;44.91
40788;BME280;26497;52.494;7.546;2023-03-03T09:48:22;101973.06;;;13.07;43.41
40788;BME280;26497;52.494;7.546;2023-03-03T09:51:04;101974.72;;;12.98;44.09
40788;BME280;26497;52.494;7.546;2023-03-03T09:53:57;101977.44;;;13.05;44.29
40788;BME280;26497;52.494;7.546;2023-03-03T09:56:31;101971.56;;;13.38;44.36
40788;BME280;26497;52.494;7.546;2023-03-03T09:59:25;101971.84;;;13.66;43.39
40788;BME280;26497;52.494;7.546;2023-03-03T10:02:23;101976.13;;;13.52;41.98
40788;BME280;26497;52.494;7.546;2023-03-03T10:05:09;101978.63;;;13.35;42.54
40788;BME280;26497;52.494;7.546;2023-03-03T10:07:46;101975.94;;;13.32;42.05
40788;BME280;26497;52.494;7.546;2023-03-03T10:10:50;101972.44;;;13.33;41.74
40788;BME280;26497;52.494;7.546;2023-03-03T10:13:34;101977.00;;;13.48;42.53
40788;BME280;26497;52.494;7.546;2023-03-03T10:16:21;101980.34;;;13.31;42.97
40788;BME280;26497;52.494;7.546;2023-03-03T10:19:00;101971.78;;;13.57;42.60
40788;BME280;26497;52.494;7.546;2023-03-03T10:21:35;101969.34;;;13.86;42.34
40788;BME280;26497;52.494;7.546;2023-03-03T10:24:13;101965.22;;;14.41;41.46
40788;BME280;26497;52.494;7.546;2023-03-03T10:26:58;101958.22;;;14.62;41.02
40788;BME280;26497;52.494;7.546;2023-03-03T10:29:34;101976.00;;;14.79;40.21
40788;BME280;26497;52.494;7.546;2023-03-03T10:32:34;101967.19;;;14.91;38.92
40788;BME280;26497;52.494;7.546;2023-03-03T10:35:22;101961.88;;;14.95;39.96
40788;BME280;26497;52.494;7.546;2023-03-03T10:38:07;101968.13;;;15.19;37.63
40788;BME280;26497;52.494;7.546;2023-03-03T10:40:46;101966.34;;;15.02;38.82
40788;BME280;26497;52.494;7.546;2023-03-03T10:43:32;101963.63;;;14.81;38.55
40788;BME280;26497;52.494;7.546;2023-03-03T10:49:10;101961.91;;;15.74;39.13
40788;BME280;26497;52.494;7.546;2023-03-03T10:52:07;101956.72;;;17.43;36.22
40788;BME280;26497;52.494;7.546;2023-03-03T10:54:59;101960.34;;;18.96;33.13
40788;BME280;26497;52.494;7.546;2023-03-03T10:57:36;101956.53;;;19.66;32.14
40788;BME280;26497;52.494;7.546;2023-03-03T11:00:18;101956.19;;;19.85;31.10
40788;BME280;26497;52.494;7.546;2023-03-03T11:03:11;101952.31;;;18.98;31.48
40788;BME280;26497;52.494;7.546;2023-03-03T11:05:49;101952.69;;;18.68;32.42
40788;BME280;26497;52.494;7.546;2023-03-03T11:08:26;101942.44;;;18.36;33.08
40788;BME280;26497;52.494;7.546;2023-03-03T11:11:06;101958.41;;;17.53;33.40
40788;BME280;26497;52.494;7.546;2023-03-03T11:13:44;101957.59;;;17.45;33.84
40788;BME280;26497;52.494;7.546;2023-03-03T11:16:31;101954.59;;;17.80;32.87
40788;BME280;26497;52.494;7.546;2023-03-03T11:19:25;101946.66;;;18.54;32.16
40788;BME280;26497;52.494;7.546;2023-03-03T11:22:02;101941.75;;;19.43;31.75
40788;BME280;26497;52.494;7.546;2023-03-03T11:24:45;101941.81;;;20.77;29.18
40788;BME280;26497;52.494;7.546;2023-03-03T11:27:30;101940.59;;;21.28;28.42
40788;BME280;26497;52.494;7.546;2023-03-03T11:30:16;101952.09;;;20.14;28.32
40788;BME280;26497;52.494;7.546;2023-03-03T11:32:48;101949.56;;;18.34;31.21
40788;BME280;26497;52.494;7.546;2023-03-03T11:35:23;101952.91;;;17.72;32.83
40788;BME280;26497;52.494;7.546;2023-03-03T11:38:15;101940.22;;;17.94;32.23
40788;BME280;26497;52.494;7.546;2023-03-03T11:40:50;101941.13;;;17.91;32.77
40788;BME280;26497;52.494;7.546;2023-03-03T11:43:26;101939.28;;;18.00;32.45
40788;BME280;26497;52.494;7.546;2023-03-03T11:45:58;101939.56;;;18.51;31.72
40788;BME280;26497;52.494;7.546;2023-03-03T11:48:34;101938.41;;;18.69;31.66
40788;BME280;26497;52.494;7.546;2023-03-03T11:51:07;101942.19;;;19.19;30.86
40788;BME280;26497;52.494;7.546;2023-03-03T11:53:49;101928.59;;;19.81;29.90
40788;BME280;26497;52.494;7.546;2023-03-03T11:56:26;101936.34;;;19.98;29.96
40788;BME280;26497;52.494;7.546;2023-03-03T11:59:22;101928.97;;;20.10;29.57
40788;BME280;26497;52.494;7.546;2023-03-03T12:01:58;101926.41;;;20.03;30.29
40788;BME280;26497;52.494;7.546;2023-03-03T12:04:33;101920.44;;;19.89;29.45
40788;BME280;26497;52.494;7.546;2023-03-03T12:07:16;101919.38;;;19.49;30.37
40788;BME280;26497;52.494;7.546;2023-03-03T12:10:00;101913.28;;;18.84;31.30
40788;BME280;26497;52.494;7.546;2023-03-03T12:12:35;101913.91;;;18.38;31.43
40788;BME280;26497;52.494;7.546;2023-03-03T12:15:18;101917.97;;;17.93;31.99
40788;BME280;26497;52.494;7.546;2023-03-03T12:18:12;101906.09;;;17.39;32.98
40788;BME280;26497;52.494;7.546;2023-03-03T12:20:50;101903.03;;;17.78;33.66
40788;BME280;26497;52.494;7.546;2023-03-03T12:23:46;101898.00;;;19.48;30.06
40788;BME280;26497;52.494;7.546;2023-03-03T12:26:19;101895.94;;;20.11;28.81
40788;BME280;26497;52.494;7.546;2023-03-03T12:28:56;101887.75;;;20.58;29.25
40788;BME280;26497;52.494;7.546;2023-03-03T12:31:36;101880.44;;;20.25;29.31
40788;BME280;26497;52.494;7.546;2023-03-03T12:34:13;101886.81;;;19.74;30.05
40788;BME280;26497;52.494;7.546;2023-03-03T12:37:02;101885.50;;;19.48;29.96
40788;BME280;26497;52.494;7.546;2023-03-03T12:39:45;101891.53;;;19.09;30.42
40788;BME280;26497;52.494;7.546;2023-03-03T12:42:25;101881.56;;;18.58;30.85
40788;BME280;26497;52.494;7.546;2023-03-03T12:45:13;101879.38;;;18.25;32.08
40788;BME280;26497;52.494;7.546;2023-03-03T12:47:49;101879.09;;;17.74;32.01
40788;BME280;26497;52.494;7.546;2023-03-03T12:50:35;101879.81;;;17.87;31.46
40788;BME280;26497;52.494;7.546;2023-03-03T12:53:20;101873.03;;;17.54;31.49
40788;BME280;26497;52.494;7.546;2023-03-03T12:55:54;101877.69;;;17.35;32.66
40788;BME280;26497;52.494;7.546;2023-03-03T12:58:39;101880.66;;;17.00;33.16
40788;BME280;26497;52.494;7.546;2023-03-03T13:01:30;101871.91;;;16.76;33.95
40788;BME280;26497;52.494;7.546;2023-03-03T13:04:07;101872.84;;;16.72;34.40
40788;BME280;26497;52.494;7.546;2023-03-03T13:06:45;101865.19;;;16.06;35.40
40788;BME280;26497;52.494;7.546;2023-03-03T13:09:27;101855.47;;;15.96;35.24
40788;BME280;26497;52.494;7.546;2023-03-03T13:12:30;101866.13;;;16.01;35.35
40788;BME280;26497;52.494;7.546;2023-03-03T13:15:08;101863.53;;;15.74;36.35
40788;BME280;26497;52.494;7.546;2023-03-03T13:17:47;101864.38;;;15.75;36.15
40788;BME280;26497;52.494;7.546;2023-03-03T13:20:24;101858.13;;;16.01;34.98
40788;BME280;26497;52.494;7.546;2023-03-03T13:23:00;101860.81;;;15.79;36.22
40788;BME280;26497;52.494;7.546;2023-03-03T13:25:49;101850.19;;;15.79;37.30
40788;BME280;26497;52.494;7.546;2023-03-03T13:28:26;101852.91;;;15.60;37.56
40788;BME280;26497;52.494;7.546;2023-03-03T13:31:05;101848.50;;;15.44;36.85
40788;BME280;26497;52.494;7.546;2023-03-03T13:33:36;101845.91;;;15.19;37.15
40788;BME280;26497;52.494;7.546;2023-03-03T13:36:07;101845.91;;;15.07;38.24